Time;durP1;ratioP1;P1;durP2;ratioP2;P2;SDS_P1;SDS_P2;PMS_P1;PMS_P2;Temp;Humidity;BMP_temperature;BMP_pressure;BME280_temperature;BME280_humidity;BME280_pressure;Samples;Min_cycle;Max_cycle;Signal;HPM_P1;HPM_P2
2023/09/21 00:02:17;;;;;;;;;;;16.90;99.90;;;;;;21002973;28;19956;-72
2023/09/21 00:12:18;;;;;;;;;;;16.80;99.90;;;;;;21003371;28;20007;-73
2023/09/21 00:22:18;;;;;;;;;;;16.80;99.90;;;;;;21000743;28;20003;-72
2023/09/21 00:32:20;;;;;;;;;;;16.80;99.90;;;;;;20998876;28;20264;-72
2023/09/21 00:42:21;;;;;;;;;;;16.80;99.90;;;;;;20997643;28;19970;-71
2023/09/21 00:52:22;;;;;;;;;;;16.80;99.90;;;;;;20996835;28;20006;-70
2023/09/21 01:02:23;;;;;;;;;;;16.80;99.90;;;;;;20996701;28;20487;-71
2023/09/21 01:12:27;;;;;;;;;;;16.70;99.90;;;;;;20998434;28;20022;-71
2023/09/21 01:22:28;;;;;;;;;;;16.60;99.90;;;;;;20999288;28;19916;-71
2023/09/21 01:32:29;;;;;;;;;;;16.60;99.90;;;;;;20996886;28;19917;-72
2023/09/21 01:42:31;;;;;;;;;;;16.40;99.90;;;;;;20999536;28;19962;-70
2023/09/21 01:52:32;;;;;;;;;;;16.40;99.90;;;;;;20994117;28;19966;-72
2023/09/21 02:02:34;;;;;;;;;;;16.20;99.90;;;;;;20997439;28;20280;-71
2023/09/21 02:12:36;;;;;;;;;;;16.30;99.90;;;;;;21007917;28;19912;-71
2023/09/21 02:22:37;;;;;;;;;;;16.40;99.90;;;;;;21015692;28;19924;-72
2023/09/21 02:32:38;;;;;;;;;;;16.30;99.90;;;;;;21012297;28;20276;-71
2023/09/21 02:42:39;;;;;;;;;;;16.20;99.90;;;;;;21012309;28;20282;-71
2023/09/21 02:52:45;;;;;;;;;;;16.20;99.90;;;;;;21009053;28;19954;-71
2023/09/21 03:02:46;;;;;;;;;;;16.10;99.90;;;;;;21010057;28;19920;-73
2023/09/21 03:12:51;;;;;;;;;;;16.10;99.90;;;;;;21009338;28;19935;-71
2023/09/21 03:22:56;;;;;;;;;;;16.30;99.90;;;;;;21002673;28;19920;-71
2023/09/21 03:32:56;;;;;;;;;;;16.30;99.90;;;;;;20963747;28;20282;-70
2023/09/21 03:42:57;;;;;;;;;;;16.20;99.90;;;;;;20983284;28;19923;-70
2023/09/21 03:52:59;;;;;;;;;;;16.20;99.90;;;;;;20977649;28;19919;-71
2023/09/21 04:03:01;;;;;;;;;;;16.10;99.90;;;;;;20987361;28;19917;-71
2023/09/21 04:13:05;;;;;;;;;;;16.00;99.90;;;;;;20999353;28;19913;-71
2023/09/21 04:23:05;;;;;;;;;;;16.00;99.90;;;;;;21002996;28;19916;-73
2023/09/21 04:33:06;;;;;;;;;;;16.00;99.90;;;;;;21002182;28;20003;-71
2023/09/21 04:43:08;;;;;;;;;;;16.00;99.90;;;;;;21003050;28;20335;-71
2023/09/21 04:53:09;;;;;;;;;;;16.00;99.90;;;;;;21001432;28;19912;-72
2023/09/21 05:03:10;;;;;;;;;;;16.00;99.90;;;;;;20980389;28;19916;-72
2023/09/21 05:13:11;;;;;;;;;;;16.10;99.90;;;;;;20969512;28;19951;-72
2023/09/21 05:23:14;;;;;;;;;;;15.90;99.90;;;;;;20966137;28;19967;-71
2023/09/21 05:33:15;;;;;;;;;;;15.80;99.90;;;;;;20966162;28;19912;-71
2023/09/21 05:43:16;;;;;;;;;;;15.60;99.90;;;;;;20968154;28;19916;-72
2023/09/21 05:53:16;;;;;;;;;;;15.70;99.90;;;;;;20994446;28;19912;-72
2023/09/21 06:03:17;;;;;;;;;;;15.90;99.90;;;;;;20987156;28;19928;-72
2023/09/21 06:13:18;;;;;;;;;;;15.90;99.90;;;;;;20974339;28;19924;-71
2023/09/21 06:23:18;;;;;;;;;;;16.30;99.90;;;;;;20981064;28;20291;-73
2023/09/21 06:33:23;;;;;;;;;;;16.40;99.90;;;;;;20976319;28;19913;-72
2023/09/21 06:43:29;;;;;;;;;;;16.60;99.90;;;;;;20951982;28;19927;-72
2023/09/21 06:53:31;;;;;;;;;;;16.40;99.90;;;;;;20957994;28;20372;-72
2023/09/21 07:03:36;;;;;;;;;;;16.40;99.90;;;;;;20973355;28;19922;-72
2023/09/21 07:13:36;;;;;;;;;;;16.30;99.90;;;;;;21001183;28;19952;-71
2023/09/21 07:23:38;;;;;;;;;;;16.80;99.90;;;;;;21014883;28;20422;-74
2023/09/21 07:33:38;;;;;;;;;;;17.10;99.90;;;;;;21014369;28;20351;-72
2023/09/21 07:43:40;;;;;;;;;;;17.50;99.90;;;;;;21013590;28;19954;-71
2023/09/21 07:53:41;;;;;;;;;;;18.00;99.90;;;;;;21013011;28;20450;-73
2023/09/21 08:03:41;;;;;;;;;;;18.60;99.90;;;;;;21011748;28;19944;-72
2023/09/21 08:13:42;;;;;;;;;;;19.00;99.90;;;;;;21011832;28;20008;-72
2023/09/21 08:23:42;;;;;;;;;;;19.50;99.90;;;;;;21004454;28;19923;-73
2023/09/21 08:33:43;;;;;;;;;;;20.40;99.90;;;;;;20999310;28;20298;-72
2023/09/21 08:43:44;;;;;;;;;;;21.70;99.90;;;;;;20977975;28;20024;-73
2023/09/21 08:53:50;;;;;;;;;;;23.40;99.90;;;;;;20993005;28;19912;-73
2023/09/21 09:03:51;;;;;;;;;;;23.30;99.90;;;;;;21007273;28;20313;-73
2023/09/21 09:13:52;;;;;;;;;;;24.60;99.90;;;;;;20987920;28;19952;-74
2023/09/21 09:23:52;;;;;;;;;;;24.20;99.90;;;;;;20960419;28;20434;-73
2023/09/21 09:33:55;;;;;;;;;;;23.60;99.90;;;;;;20971102;28;19913;-73
2023/09/21 09:43:57;;;;;;;;;;;25.30;99.90;;;;;;21003094;28;19920;-73
2023/09/21 09:53:59;;;;;;;;;;;26.30;99.90;;;;;;20967028;28;19913;-73
2023/09/21 10:04:00;;;;;;;;;;;26.00;99.90;;;;;;20987129;28;19917;-74
2023/09/21 10:14:03;;;;;;;;;;;27.20;99.90;;;;;;20985721;28;20363;-73
2023/09/21 10:24:12;;;;;;;;;;;27.30;99.90;;;;;;20981712;28;20310;-74
2023/09/21 10:34:16;;;;;;;;;;;26.40;99.90;;;;;;21000422;28;20003;-76
2023/09/21 10:44:35;;;;;;;;;;;25.40;99.90;;;;;;21014573;28;20392;-73
2023/09/21 10:54:36;;;;;;;;;;;25.30;99.90;;;;;;21016978;28;19958;-74
2023/09/21 11:04:38;;;;;;;;;;;25.60;99.90;;;;;;21017578;28;20434;-73
2023/09/21 11:14:43;;;;;;;;;;;25.10;99.90;;;;;;20992757;28;19912;-73
2023/09/21 11:24:45;;;;;;;;;;;26.30;99.90;;;;;;20978913;28;20378;-73
2023/09/21 11:34:47;;;;;;;;;;;26.10;99.90;;;;;;21014005;28;19912;-73
2023/09/21 11:44:50;;;;;;;;;;;26.20;99.90;;;;;;20994586;28;19928;-74
2023/09/21 11:54:52;;;;;;;;;;;26.30;99.90;;;;;;20988144;28;19913;-74
2023/09/21 12:04:53;;;;;;;;;;;27.60;99.90;;;;;;20988976;28;19916;-73
2023/09/21 12:14:53;;;;;;;;;;;27.60;99.90;;;;;;20980793;28;19919;-75
2023/09/21 12:24:54;;;;;;;;;;;27.30;99.90;;;;;;20982512;28;19920;-75
2023/09/21 12:34:56;;;;;;;;;;;29.00;99.90;;;;;;20991341;28;19958;-74
2023/09/21 12:44:57;;;;;;;;;;;29.10;99.90;;;;;;20982828;28;19999;-74
2023/09/21 12:54:58;;;;;;;;;;;28.50;99.90;;;;;;20997916;28;19958;-74
2023/09/21 13:04:59;;;;;;;;;;;28.00;99.90;;;;;;21011237;28;19948;-75
2023/09/21 13:15:00;;;;;;;;;;;27.70;99.90;;;;;;21011259;28;19958;-77
2023/09/21 13:25:01;;;;;;;;;;;27.30;99.90;;;;;;21010190;28;19916;-75
2023/09/21 13:35:03;;;;;;;;;;;26.70;99.90;;;;;;21012134;28;20552;-74
2023/09/21 13:45:07;;;;;;;;;;;28.30;99.90;;;;;;21004174;28;20399;-74
2023/09/21 13:55:10;;;;;;;;;;;26.90;99.90;;;;;;21004840;28;20418;-74
2023/09/21 14:05:11;;;;;;;;;;;26.40;99.90;;;;;;21007978;28;19969;-74
2023/09/21 14:15:11;;;;;;;;;;;26.30;99.90;;;;;;21000280;28;19920;-73
2023/09/21 14:25:12;;;;;;;;;;;25.90;99.90;;;;;;20985055;28;19916;-73
2023/09/21 14:35:14;;;;;;;;;;;25.80;99.90;;;;;;20990287;28;19916;-73
2023/09/21 14:45:14;;;;;;;;;;;25.00;99.90;;;;;;20996182;28;19994;-74
2023/09/21 14:55:15;;;;;;;;;;;24.60;99.90;;;;;;20969388;28;20020;-73
2023/09/21 15:05:16;;;;;;;;;;;24.50;99.90;;;;;;20996679;28;19916;-73
2023/09/21 15:15:17;;;;;;;;;;;24.10;99.90;;;;;;20959867;28;20471;-74
2023/09/21 15:25:18;;;;;;;;;;;23.90;99.90;;;;;;20992234;28;19917;-74
2023/09/21 15:35:18;;;;;;;;;;;23.90;99.90;;;;;;21001577;28;20012;-74
2023/09/21 15:45:19;;;;;;;;;;;23.60;99.90;;;;;;20970614;28;19917;-74
2023/09/21 15:55:20;;;;;;;;;;;23.90;99.90;;;;;;20973261;28;19912;-74
2023/09/21 16:05:21;;;;;;;;;;;23.70;99.90;;;;;;20984445;28;19959;-74
2023/09/21 16:15:22;;;;;;;;;;;23.60;99.90;;;;;;21002974;28;20014;-74
2023/09/21 16:25:23;;;;;;;;;;;22.70;99.90;;;;;;21000861;28;19920;-74
2023/09/21 16:35:23;;;;;;;;;;;22.40;99.90;;;;;;21007338;28;20430;-74
2023/09/21 16:45:24;;;;;;;;;;;22.40;99.90;;;;;;21009578;28;19975;-74
2023/09/21 16:55:24;;;;;;;;;;;22.00;99.90;;;;;;21003334;28;19916;-73
2023/09/21 17:05:25;;;;;;;;;;;21.50;99.90;;;;;;20997471;28;20371;-73
2023/09/21 17:15:26;;;;;;;;;;;21.40;99.90;;;;;;20991707;28;19912;-76
2023/09/21 17:25:27;;;;;;;;;;;21.20;99.90;;;;;;21006031;28;19923;-73
2023/09/21 17:35:27;;;;;;;;;;;20.30;99.90;;;;;;21015576;28;19912;-74
2023/09/21 17:45:28;;;;;;;;;;;20.00;99.90;;;;;;21017964;28;19924;-73
2023/09/21 17:55:29;;;;;;;;;;;19.20;99.90;;;;;;21010989;28;19918;-74
2023/09/21 18:05:30;;;;;;;;;;;18.30;99.90;;;;;;21019465;28;19923;-73
2023/09/21 18:15:31;;;;;;;;;;;17.60;99.90;;;;;;21000318;28;20379;-75
2023/09/21 18:25:31;;;;;;;;;;;17.40;99.90;;;;;;20988419;28;19917;-73
2023/09/21 18:35:33;;;;;;;;;;;17.00;99.90;;;;;;20970681;28;19919;-73
2023/09/21 18:45:33;;;;;;;;;;;16.60;99.90;;;;;;21015982;28;20390;-75
2023/09/21 18:55:34;;;;;;;;;;;16.40;99.90;;;;;;21002336;28;20015;-76
2023/09/21 19:05:35;;;;;;;;;;;16.30;99.90;;;;;;21021722;28;19974;-75
2023/09/21 19:15:36;;;;;;;;;;;16.10;99.90;;;;;;21021689;28;19919;-75
2023/09/21 19:25:37;;;;;;;;;;;16.00;99.90;;;;;;21010350;28;19951;-76
2023/09/21 19:35:37;;;;;;;;;;;15.90;99.90;;;;;;20997176;28;19991;-76
2023/09/21 19:45:38;;;;;;;;;;;15.80;99.90;;;;;;21022530;28;20054;-75
2023/09/21 19:55:38;;;;;;;;;;;15.70;99.90;;;;;;21020272;28;20451;-75
2023/09/21 20:05:39;;;;;;;;;;;15.40;99.90;;;;;;21014627;28;19920;-76
2023/09/21 20:15:40;;;;;;;;;;;15.10;99.90;;;;;;20985838;28;19912;-75
2023/09/21 20:25:41;;;;;;;;;;;14.90;99.90;;;;;;20982340;28;19916;-74
2023/09/21 20:35:42;;;;;;;;;;;14.80;99.90;;;;;;21007436;28;20414;-74
2023/09/21 20:45:42;;;;;;;;;;;14.60;99.90;;;;;;20996469;28;19978;-77
2023/09/21 20:55:43;;;;;;;;;;;14.60;99.90;;;;;;20970352;28;20394;-75
2023/09/21 21:05:44;;;;;;;;;;;14.60;99.90;;;;;;21012443;28;19922;-76
2023/09/21 21:15:44;;;;;;;;;;;14.50;99.90;;;;;;20986787;28;19917;-75
2023/09/21 21:25:45;;;;;;;;;;;14.40;99.90;;;;;;21001961;28;19920;-75
2023/09/21 21:35:46;;;;;;;;;;;14.40;99.90;;;;;;21016095;28;19919;-74
2023/09/21 21:45:46;;;;;;;;;;;14.40;99.90;;;;;;21015791;28;19920;-74
2023/09/21 21:55:47;;;;;;;;;;;14.30;99.90;;;;;;21011452;28;19917;-74
2023/09/21 22:05:50;;;;;;;;;;;14.20;99.90;;;;;;21015038;28;19920;-74
2023/09/21 22:15:50;;;;;;;;;;;14.10;99.90;;;;;;20977193;28;19952;-76
2023/09/21 22:25:51;;;;;;;;;;;14.10;99.90;;;;;;20999176;28;20337;-76
2023/09/21 22:35:52;;;;;;;;;;;14.20;99.90;;;;;;21009680;28;19913;-76
2023/09/21 22:45:53;;;;;;;;;;;14.20;99.90;;;;;;21005867;28;19959;-74
2023/09/21 22:55:57;;;;;;;;;;;14.20;99.90;;;;;;21013298;28;20420;-75
2023/09/21 23:06:08;;;;;;;;;;;14.20;99.90;;;;;;21012887;28;19924;-74
2023/09/21 23:16:09;;;;;;;;;;;14.30;99.90;;;;;;21016452;28;20050;-75
2023/09/21 23:26:10;;;;;;;;;;;14.30;99.90;;;;;;21006154;28;19916;-76
2023/09/21 23:36:11;;;;;;;;;;;14.40;99.90;;;;;;20994933;28;20406;-76
2023/09/21 23:46:12;;;;;;;;;;;14.50;99.90;;;;;;20999795;28;19962;-75
2023/09/21 23:56:12;;;;;;;;;;;14.50;99.90;;;;;;20996208;28;19950;-75
